Fairfield County Airport


Codes: KFDW/
Name: Fairfield County Airport
City: Winnsboro
Country: United States
Elevation: 577 ft.

Photos at Fairfield County Airport


   Photos courtesy of SpottingLog. You can add your own sightings and photos by signing up for a free trial today.



No photos found.

Weather at Fairfield County Airport


Time (UTC)DescriptionTempratureWindCloud coverageVisibilityPressureHumidity
16-Jun-2024 03:00Clear Sky27°C4 mph, SE8%10000m1016hPa60%
16-Jun-2024 06:00Few Clouds25°C4 mph, E11%10000m1017hPa74%
16-Jun-2024 09:00Few Clouds21°C4 mph, SE12%10000m1018hPa89%
16-Jun-2024 12:00Scattered Clouds25°C4 mph, SE40%10000m1020hPa73%
16-Jun-2024 15:00Broken Clouds31°C7 mph, SE56%10000m1020hPa47%
16-Jun-2024 18:00Broken Clouds32°C7 mph, SE51%10000m1019hPa44%
16-Jun-2024 21:00Broken Clouds31°C9 mph, SE76%10000m1018hPa50%
17-Jun-2024 00:00Scattered Clouds27°C7 mph, S39%10000m1019hPa63%
17-Jun-2024 03:00Scattered Clouds25°C9 mph, SE49%10000m1020hPa63%
17-Jun-2024 06:00Few Clouds20°C4 mph, SE23%10000m1021hPa78%
17-Jun-2024 09:00Broken Clouds19°C4 mph, SE67%10000m1021hPa87%
17-Jun-2024 12:00Broken Clouds22°C4 mph, SE84%10000m1023hPa78%
17-Jun-2024 15:00Broken Clouds29°C4 mph, E64%10000m1022hPa47%
17-Jun-2024 18:00Broken Clouds33°C7 mph, E68%10000m1021hPa37%
17-Jun-2024 21:00Broken Clouds32°C7 mph, E81%10000m1019hPa37%
18-Jun-2024 00:00Broken Clouds29°C9 mph, E72%10000m1019hPa46%
18-Jun-2024 03:00Broken Clouds23°C7 mph, SE74%10000m1021hPa55%
18-Jun-2024 06:00Overcast Clouds19°C4 mph, SE87%10000m1022hPa80%
18-Jun-2024 09:00Overcast Clouds18°C4 mph, E100%10000m1022hPa92%
18-Jun-2024 12:00Overcast Clouds21°C4 mph, E85%10000m1023hPa78%
18-Jun-2024 15:00Overcast Clouds28°C7 mph, E91%10000m1023hPa43%
18-Jun-2024 18:00Overcast Clouds32°C9 mph, E95%10000m1021hPa28%
18-Jun-2024 21:00Overcast Clouds33°C9 mph, E100%10000m1020hPa27%
19-Jun-2024 00:00Overcast Clouds27°C7 mph, SE100%10000m1020hPa43%
19-Jun-2024 03:00Overcast Clouds22°C7 mph, SE99%10000m1023hPa59%
19-Jun-2024 06:00Overcast Clouds19°C4 mph, E99%10000m1023hPa83%
19-Jun-2024 09:00Scattered Clouds17°C4 mph, NE33%10000m1023hPa94%
19-Jun-2024 12:00Broken Clouds21°C9 mph, NE55%10000m1025hPa79%
19-Jun-2024 15:00Overcast Clouds28°C11 mph, E85%10000m1024hPa52%
19-Jun-2024 18:00Broken Clouds31°C11 mph, E58%10000m1023hPa33%
19-Jun-2024 21:00Scattered Clouds32°C13 mph, E35%10000m1021hPa31%
20-Jun-2024 00:00Broken Clouds27°C9 mph, E58%10000m1022hPa44%
20-Jun-2024 03:00Broken Clouds22°C9 mph, SE67%10000m1024hPa62%
20-Jun-2024 06:00Scattered Clouds18°C4 mph, NE33%10000m1024hPa83%
20-Jun-2024 09:00Clear Sky17°C7 mph, NE0%10000m1024hPa91%
20-Jun-2024 12:00Clear Sky21°C9 mph, NE0%10000m1025hPa76%
20-Jun-2024 15:00Clear Sky27°C11 mph, NE6%10000m1025hPa48%
20-Jun-2024 18:00Few Clouds31°C11 mph, E19%10000m1023hPa42%
20-Jun-2024 21:00Overcast Clouds29°C9 mph, SE85%10000m1023hPa53%
21-Jun-2024 00:00Light Rain25°C9 mph, SE81%10000m1023hPa76%